createdAt,value
2019-01-25T00:00:21.595Z,55.64
2019-01-25T00:01:25.192Z,55.71
2019-01-25T00:02:29.262Z,55.67
2019-01-25T00:03:32.820Z,55.86
2019-01-25T00:04:36.450Z,55.78
2019-01-25T00:05:40.092Z,55.81
2019-01-25T00:06:43.726Z,55.88
2019-01-25T00:07:47.284Z,55.99
2019-01-25T00:08:50.959Z,56.12
2019-01-25T00:09:58.614Z,56.30
2019-01-25T00:11:00.002Z,56.11
2019-01-25T00:12:03.604Z,56.08
2019-01-25T00:13:07.327Z,56.13
2019-01-25T00:14:11.012Z,56.18
2019-01-25T00:15:15.259Z,56.14
2019-01-25T00:16:18.922Z,56.28
2019-01-25T00:17:22.608Z,56.39
2019-01-25T00:18:26.350Z,56.46
2019-01-25T00:19:29.919Z,56.47
2019-01-25T00:20:33.469Z,56.47
2019-01-25T00:21:37.127Z,56.53
2019-01-25T00:22:40.825Z,56.85
2019-01-25T00:23:44.413Z,56.73
2019-01-25T00:24:48.101Z,56.63
2019-01-25T00:25:51.774Z,56.54
2019-01-25T00:26:55.462Z,56.62
2019-01-25T00:27:59.074Z,56.62
2019-01-25T00:29:02.610Z,56.63
2019-01-25T00:30:09.648Z,56.91
2019-01-25T00:31:13.275Z,57.00
2019-01-25T00:32:16.992Z,57.11
2019-01-25T00:33:20.735Z,57.19
2019-01-25T00:34:24.331Z,57.11
2019-01-25T00:35:28.118Z,57.00
2019-01-25T00:36:31.709Z,57.14
2019-01-25T00:37:35.363Z,57.10
2019-01-25T00:38:39.075Z,57.10
2019-01-25T00:39:42.617Z,57.25
2019-01-25T00:40:46.156Z,57.26
2019-01-25T00:41:49.868Z,57.17
2019-01-25T00:42:53.641Z,57.13
2019-01-25T00:43:57.262Z,57.18
2019-01-25T00:45:00.825Z,57.33
2019-01-25T00:46:04.496Z,57.39
2019-01-25T00:47:08.249Z,57.57
2019-01-25T00:48:11.810Z,57.58
2019-01-25T00:49:15.396Z,57.60
2019-01-25T00:50:21.060Z,57.73
2019-01-25T00:51:24.606Z,57.78
2019-01-25T00:52:28.211Z,57.77
2019-01-25T00:53:31.936Z,57.81
2019-01-25T00:54:35.477Z,57.77
2019-01-25T00:55:39.258Z,57.88
2019-01-25T00:56:42.965Z,57.96
2019-01-25T00:57:46.916Z,57.61
2019-01-25T00:58:52.148Z,57.34
2019-01-25T00:59:55.782Z,57.40
2019-01-25T01:00:59.412Z,57.35
2019-01-25T01:02:03.134Z,57.43
2019-01-25T01:03:07.131Z,57.37
2019-01-25T01:04:10.927Z,57.37
2019-01-25T01:05:15.001Z,57.17
2019-01-25T01:06:18.692Z,57.18
2019-01-25T01:07:22.274Z,57.21
2019-01-25T01:08:25.978Z,57.26
2019-01-25T01:09:29.705Z,57.13
2019-01-25T01:10:33.356Z,57.23
2019-01-25T01:11:36.946Z,57.31
2019-01-25T01:12:40.786Z,57.33
2019-01-25T01:13:44.343Z,57.47
2019-01-25T01:14:47.885Z,57.56
2019-01-25T01:15:51.667Z,57.68
2019-01-25T01:16:55.278Z,58.05
2019-01-25T01:17:59.016Z,58.27
2019-01-25T01:19:02.668Z,58.36
2019-01-25T01:20:09.365Z,58.34
2019-01-25T01:21:13.098Z,58.31
2019-01-25T01:22:16.690Z,58.62
2019-01-25T01:23:20.232Z,58.78
2019-01-25T01:24:23.884Z,58.70
2019-01-25T01:25:27.632Z,58.55
2019-01-25T01:26:31.323Z,58.58
2019-01-25T01:27:35.065Z,58.47
2019-01-25T01:28:38.625Z,58.49
2019-01-25T01:29:42.241Z,58.63
2019-01-25T01:30:45.814Z,58.79
2019-01-25T01:31:49.342Z,58.99
2019-01-25T01:32:53.323Z,59.11
2019-01-25T01:33:56.920Z,59.06
2019-01-25T01:35:00.617Z,59.07
2019-01-25T01:36:04.471Z,59.00
2019-01-25T01:37:08.078Z,58.97
2019-01-25T01:38:11.757Z,58.96
2019-01-25T01:39:15.516Z,58.97
2019-01-25T01:40:22.146Z,58.93
2019-01-25T01:41:25.969Z,58.93
2019-01-25T01:42:29.588Z,58.92
2019-01-25T01:43:33.253Z,58.84
2019-01-25T01:44:36.990Z,58.90
2019-01-25T01:45:40.567Z,58.91
2019-01-25T01:46:44.281Z,58.88
2019-01-25T01:47:48.114Z,58.92
2019-01-25T01:48:51.699Z,58.87
2019-01-25T01:49:55.316Z,58.86
2019-01-25T01:50:59.005Z,58.89
2019-01-25T01:52:02.558Z,58.82
2019-01-25T01:53:06.175Z,58.79
2019-01-25T01:54:09.763Z,58.83
2019-01-25T01:55:13.934Z,58.85
2019-01-25T01:56:17.468Z,58.86
2019-01-25T01:57:21.269Z,58.96
2019-01-25T01:58:24.901Z,59.01
2019-01-25T01:59:28.545Z,59.02
2019-01-25T02:00:32.342Z,59.02
2019-01-25T02:01:36.034Z,59.09
2019-01-25T02:02:39.736Z,59.05
2019-01-25T02:03:43.337Z,59.11
2019-01-25T02:04:47.015Z,59.12
2019-01-25T02:05:50.829Z,59.17
2019-01-25T02:06:54.385Z,59.31
2019-01-25T02:07:58.074Z,59.18
2019-01-25T02:09:01.694Z,59.18
2019-01-25T02:10:08.631Z,59.22
2019-01-25T02:11:12.341Z,59.28
2019-01-25T02:12:16.046Z,59.25
2019-01-25T02:13:19.758Z,59.34
2019-01-25T02:14:23.437Z,59.58
2019-01-25T02:15:27.160Z,59.45
2019-01-25T02:16:30.793Z,59.45
2019-01-25T02:17:34.515Z,59.63
2019-01-25T02:18:38.112Z,59.57
2019-01-25T02:19:41.664Z,59.56
2019-01-25T02:20:45.365Z,59.58
2019-01-25T02:21:49.192Z,59.49
2019-01-25T02:22:52.863Z,59.35
2019-01-25T02:23:56.489Z,59.40
2019-01-25T02:25:00.073Z,59.53
2019-01-25T02:26:03.778Z,59.54
2019-01-25T02:27:07.361Z,59.58
2019-01-25T02:28:10.987Z,59.57
2019-01-25T02:29:14.574Z,59.69
2019-01-25T02:30:23.253Z,59.64
2019-01-25T02:31:26.877Z,59.62
2019-01-25T02:32:30.533Z,59.58
2019-01-25T02:33:34.240Z,59.49
2019-01-25T02:34:37.855Z,59.45
2019-01-25T02:35:41.546Z,59.47
2019-01-25T02:36:45.213Z,59.66
2019-01-25T02:37:48.952Z,59.99
2019-01-25T02:38:52.523Z,60.12
2019-01-25T02:39:56.193Z,60.16
2019-01-25T02:40:59.780Z,60.20
2019-01-25T02:42:03.477Z,60.18
2019-01-25T02:43:09.931Z,60.09
2019-01-25T02:44:13.512Z,60.10
2019-01-25T02:45:17.430Z,60.04
2019-01-25T02:46:20.971Z,60.11
2019-01-25T02:47:24.611Z,60.33
2019-01-25T02:48:28.204Z,59.90
2019-01-25T02:49:31.791Z,60.05
2019-01-25T02:50:35.342Z,60.12
2019-01-25T02:51:38.948Z,60.30
2019-01-25T02:52:42.739Z,60.27
2019-01-25T02:53:46.319Z,60.25
2019-01-25T02:54:49.860Z,60.24
2019-01-25T02:55:53.563Z,60.21
2019-01-25T02:56:57.152Z,60.23
2019-01-25T02:58:00.802Z,60.25
2019-01-25T02:59:04.631Z,60.24
2019-01-25T03:00:22.573Z,60.26
2019-01-25T03:01:26.154Z,60.26
2019-01-25T03:02:29.844Z,60.22
2019-01-25T03:03:33.461Z,60.07
2019-01-25T03:04:37.131Z,60.17
2019-01-25T03:05:40.704Z,60.26
2019-01-25T03:06:44.234Z,60.39
2019-01-25T03:07:48.058Z,60.55
2019-01-25T03:08:51.616Z,60.52
2019-01-25T03:09:55.238Z,60.55
2019-01-25T03:10:58.885Z,60.45
2019-01-25T03:12:02.550Z,60.45
2019-01-25T03:13:06.280Z,60.33
2019-01-25T03:14:10.058Z,60.18
2019-01-25T03:15:16.416Z,59.86
2019-01-25T03:16:20.092Z,59.61
2019-01-25T03:17:23.709Z,59.65
2019-01-25T03:18:27.317Z,59.72
2019-01-25T03:19:31.007Z,59.79
2019-01-25T03:20:34.548Z,59.91
2019-01-25T03:21:38.199Z,60.11
2019-01-25T03:22:41.790Z,60.06
2019-01-25T03:23:45.397Z,60.26
2019-01-25T03:24:49.085Z,60.12
2019-01-25T03:25:52.664Z,60.21
2019-01-25T03:26:56.199Z,60.33
2019-01-25T03:27:59.938Z,60.47
2019-01-25T03:29:03.677Z,60.54
2019-01-25T03:30:13.477Z,60.59
2019-01-25T03:31:17.163Z,60.67
2019-01-25T03:32:20.829Z,60.58
2019-01-25T03:33:24.449Z,60.43
2019-01-25T03:34:28.066Z,60.29
2019-01-25T03:35:31.779Z,60.24
2019-01-25T03:36:35.437Z,60.17
2019-01-25T03:37:39.029Z,59.77
2019-01-25T03:38:42.630Z,59.71
2019-01-25T03:39:46.307Z,59.78
2019-01-25T03:40:54.941Z,59.79
2019-01-25T03:41:55.271Z,59.89
2019-01-25T03:42:58.904Z,59.83
2019-01-25T03:44:02.626Z,59.76
2019-01-25T03:45:08.594Z,59.49
2019-01-25T03:46:12.363Z,59.57
2019-01-25T03:47:15.893Z,59.66
2019-01-25T03:48:19.428Z,59.68
2019-01-25T03:49:23.141Z,59.50
2019-01-25T03:50:28.905Z,59.41
2019-01-25T03:51:32.576Z,59.33
2019-01-25T03:52:36.166Z,59.29
2019-01-25T03:53:39.731Z,59.12
2019-01-25T03:54:43.365Z,58.89
2019-01-25T03:55:46.907Z,58.70
2019-01-25T03:56:50.525Z,58.58
2019-01-25T03:57:54.225Z,58.31
2019-01-25T03:58:57.767Z,58.26
2019-01-25T04:00:01.407Z,58.13
2019-01-25T04:01:05.310Z,58.19
2019-01-25T04:02:08.972Z,58.08
2019-01-25T04:03:12.700Z,57.83
2019-01-25T04:04:16.305Z,58.00
2019-01-25T04:05:20.086Z,58.01
2019-01-25T04:06:23.696Z,57.85
2019-01-25T04:07:27.385Z,57.82
2019-01-25T04:08:30.967Z,57.76
2019-01-25T04:09:34.672Z,57.62
2019-01-25T04:10:38.299Z,57.47
2019-01-25T04:11:42.049Z,57.41
2019-01-25T04:12:45.667Z,57.30
2019-01-25T04:13:49.340Z,57.27
2019-01-25T04:14:52.981Z,57.21
2019-01-25T04:15:56.587Z,57.23
2019-01-25T04:17:00.206Z,56.99
2019-01-25T04:18:04.119Z,56.86
2019-01-25T04:19:07.751Z,56.87
2019-01-25T04:20:19.244Z,56.75
2019-01-25T04:21:22.858Z,56.76
2019-01-25T04:22:26.509Z,56.85
2019-01-25T04:23:30.259Z,56.73
2019-01-25T04:24:33.795Z,56.64
2019-01-25T04:25:37.543Z,56.65
2019-01-25T04:26:41.159Z,56.55
2019-01-25T04:27:44.744Z,56.41
2019-01-25T04:28:48.423Z,56.41
2019-01-25T04:29:51.964Z,56.31
2019-01-25T04:30:57.035Z,56.26
2019-01-25T04:32:00.739Z,56.19
2019-01-25T04:33:05.199Z,56.17
2019-01-25T04:34:08.842Z,56.13
2019-01-25T04:35:12.733Z,56.06
2019-01-25T04:36:16.276Z,56.06
2019-01-25T04:37:19.825Z,55.93
2019-01-25T04:38:23.402Z,55.91
2019-01-25T04:39:27.010Z,55.91
2019-01-25T04:40:30.695Z,55.88
2019-01-25T04:41:34.242Z,55.86
2019-01-25T04:42:37.983Z,55.92
2019-01-25T04:43:41.673Z,55.87
2019-01-25T04:44:45.217Z,55.88
2019-01-25T04:45:48.853Z,55.97
2019-01-25T04:46:52.470Z,56.04
2019-01-25T04:47:55.985Z,55.93
2019-01-25T04:48:59.633Z,55.91
2019-01-25T04:50:04.902Z,56.00
2019-01-25T04:51:08.859Z,55.96
2019-01-25T04:52:13.441Z,55.95
2019-01-25T04:53:17.178Z,55.94
2019-01-25T04:54:20.826Z,55.82
2019-01-25T04:55:27.094Z,55.87
2019-01-25T04:56:34.832Z,55.84
2019-01-25T04:57:38.401Z,55.87
2019-01-25T04:58:42.027Z,55.91
2019-01-25T04:59:45.645Z,55.81
2019-01-25T05:00:49.375Z,55.77
2019-01-25T05:01:53.067Z,55.79
2019-01-25T05:02:58.533Z,55.80
2019-01-25T05:04:02.185Z,55.82
2019-01-25T05:05:06.447Z,55.72
2019-01-25T05:06:10.107Z,55.74
2019-01-25T05:07:13.680Z,55.62
2019-01-25T05:08:18.610Z,55.58
2019-01-25T05:09:22.106Z,55.65
2019-01-25T05:10:25.765Z,55.64
2019-01-25T05:11:29.335Z,55.57
2019-01-25T05:12:32.826Z,55.67
2019-01-25T05:13:36.393Z,55.69
2019-01-25T05:14:40.003Z,55.65
2019-01-25T05:15:43.831Z,55.62
2019-01-25T05:16:47.389Z,55.69
2019-01-25T05:17:55.530Z,55.59
2019-01-25T05:18:59.021Z,55.56
2019-01-25T05:20:02.585Z,55.68
2019-01-25T05:21:06.259Z,55.59
2019-01-25T05:22:09.888Z,55.63
2019-01-25T05:23:13.533Z,55.58
2019-01-25T05:24:17.031Z,55.52
2019-01-25T05:25:22.832Z,55.59
2019-01-25T05:26:26.361Z,55.69
2019-01-25T05:27:29.942Z,55.76
2019-01-25T05:28:33.480Z,55.73
2019-01-25T05:29:51.218Z,56.20
2019-01-25T05:30:57.082Z,56.18
2019-01-25T05:32:03.686Z,55.16
2019-01-25T05:33:07.171Z,56.02
2019-01-25T05:34:10.708Z,56.54
2019-01-25T05:35:14.346Z,55.94
2019-01-25T05:36:17.836Z,55.19
2019-01-25T05:37:21.497Z,55.34
2019-01-25T05:38:25.054Z,55.47
2019-01-25T05:39:28.905Z,55.33
2019-01-25T05:40:32.560Z,55.21
2019-01-25T05:41:36.049Z,55.25
2019-01-25T05:42:39.726Z,55.18
2019-01-25T05:43:43.815Z,55.23
2019-01-25T05:44:47.423Z,55.14
2019-01-25T05:45:51.636Z,55.07
2019-01-25T05:46:55.682Z,54.81
2019-01-25T05:47:59.207Z,53.29
2019-01-25T05:49:02.852Z,53.02
2019-01-25T05:50:09.761Z,50.90
2019-01-25T05:51:13.413Z,50.17
2019-01-25T05:52:17.560Z,49.71
2019-01-25T05:53:21.119Z,52.09
2019-01-25T05:54:24.604Z,51.91
2019-01-25T05:55:28.107Z,51.96
2019-01-25T05:56:31.681Z,51.60
2019-01-25T05:57:35.365Z,51.00
2019-01-25T05:58:38.954Z,50.98
2019-01-25T05:59:42.478Z,49.32
2019-01-25T06:00:46.048Z,48.77
2019-01-25T06:01:49.605Z,49.00
2019-01-25T06:02:53.289Z,49.43
2019-01-25T06:03:56.958Z,49.62
2019-01-25T06:05:00.503Z,49.62
2019-01-25T06:06:04.946Z,49.73
2019-01-25T06:07:08.590Z,49.80
2019-01-25T06:08:33.166Z,49.83
2019-01-25T06:09:36.845Z,49.83
2019-01-25T06:10:40.333Z,49.88
2019-01-25T06:11:43.848Z,50.02
2019-01-25T06:12:51.346Z,50.11
2019-01-25T06:13:55.024Z,50.29
2019-01-25T06:14:58.672Z,50.25
2019-01-25T06:16:02.507Z,50.38
2019-01-25T06:17:06.169Z,50.48
2019-01-25T06:18:09.918Z,50.51
2019-01-25T06:19:13.550Z,50.63
2019-01-25T06:20:17.274Z,50.77
2019-01-25T06:21:20.786Z,50.88
2019-01-25T06:22:24.346Z,51.02
2019-01-25T06:23:27.967Z,51.16
2019-01-25T06:24:31.453Z,51.29
2019-01-25T06:25:34.996Z,51.44
2019-01-25T06:26:40.222Z,51.56
2019-01-25T06:27:43.708Z,51.72
2019-01-25T06:28:50.223Z,51.93
2019-01-25T06:29:53.783Z,52.05
2019-01-25T06:30:57.359Z,52.12
2019-01-25T06:32:00.959Z,52.28
2019-01-25T06:33:04.751Z,52.37
2019-01-25T06:34:08.256Z,52.47
2019-01-25T06:35:12.609Z,52.57
2019-01-25T06:36:16.117Z,52.58
2019-01-25T06:37:19.730Z,52.66
2019-01-25T06:38:23.342Z,52.68
2019-01-25T06:39:26.905Z,52.68
2019-01-25T06:40:30.421Z,52.50
2019-01-25T06:41:33.994Z,52.47
2019-01-25T06:42:37.678Z,52.24
2019-01-25T06:43:41.275Z,52.15
2019-01-25T06:44:44.820Z,52.02
2019-01-25T06:45:49.910Z,51.89
2019-01-25T06:46:53.617Z,51.71
2019-01-25T06:47:57.215Z,51.63
2019-01-25T06:49:00.953Z,51.49
2019-01-25T06:50:09.693Z,51.37
2019-01-25T06:51:13.306Z,51.33
2019-01-25T06:52:16.866Z,51.28
2019-01-25T06:53:20.500Z,51.32
2019-01-25T06:54:24.137Z,51.40
2019-01-25T06:55:27.817Z,51.37
2019-01-25T06:56:31.444Z,51.37
2019-01-25T06:57:36.727Z,51.51
2019-01-25T06:58:41.882Z,51.53
2019-01-25T06:59:45.398Z,51.67
2019-01-25T07:00:55.332Z,51.71
2019-01-25T07:02:00.582Z,51.73
2019-01-25T07:03:04.398Z,51.70
2019-01-25T07:04:07.954Z,51.72
2019-01-25T07:05:11.680Z,51.72
2019-01-25T07:06:15.338Z,51.75
2019-01-25T07:07:20.567Z,51.74
2019-01-25T07:08:24.163Z,51.72
2019-01-25T07:09:27.739Z,51.71
2019-01-25T07:10:31.312Z,51.57
2019-01-25T07:11:51.672Z,51.37
2019-01-25T07:14:20.081Z,51.37
2019-01-25T07:14:27.588Z,51.40
2019-01-25T07:15:37.614Z,51.42
2019-01-25T07:16:43.790Z,51.42
2019-01-25T07:17:47.436Z,51.46
2019-01-25T07:18:51.258Z,51.54
2019-01-25T07:19:54.742Z,51.68
2019-01-25T07:20:58.309Z,51.69
2019-01-25T07:22:01.932Z,51.83
2019-01-25T07:23:05.671Z,51.09
2019-01-25T07:24:09.208Z,50.13
2019-01-25T07:25:14.972Z,49.39
2019-01-25T07:26:18.554Z,49.36
2019-01-25T07:27:22.130Z,48.43
2019-01-25T07:28:25.611Z,48.56
2019-01-25T07:29:29.201Z,48.94
2019-01-25T07:30:32.881Z,49.08
2019-01-25T07:31:36.557Z,48.85
2019-01-25T07:32:40.308Z,48.40
2019-01-25T07:33:43.875Z,47.57
2019-01-25T07:34:47.579Z,46.75
2019-01-25T07:35:51.142Z,46.52
2019-01-25T07:36:54.776Z,46.69
2019-01-25T07:37:58.425Z,46.23
2019-01-25T07:39:04.971Z,45.89
2019-01-25T07:40:09.926Z,45.51
2019-01-25T07:41:13.497Z,45.32
2019-01-25T07:42:17.061Z,45.16
2019-01-25T07:43:20.681Z,45.17
2019-01-25T07:44:24.452Z,45.02
2019-01-25T07:45:28.129Z,44.80
2019-01-25T07:46:31.624Z,44.51
2019-01-25T07:47:35.193Z,44.42
2019-01-25T07:48:38.782Z,44.19
2019-01-25T07:49:42.433Z,44.06
2019-01-25T07:50:46.211Z,44.03
2019-01-25T07:51:50.030Z,43.86
2019-01-25T07:52:53.568Z,43.61
2019-01-25T07:53:57.237Z,43.84
2019-01-25T07:55:01.142Z,43.87
2019-01-25T07:56:05.009Z,44.06
2019-01-25T07:57:08.745Z,44.26
2019-01-25T07:58:12.789Z,44.28
2019-01-25T07:59:16.407Z,43.88
2019-01-25T08:00:20.126Z,43.34
2019-01-25T08:01:23.721Z,42.74
2019-01-25T08:02:27.403Z,42.69
2019-01-25T08:03:31.093Z,43.33
2019-01-25T08:04:34.611Z,43.91
2019-01-25T08:05:38.371Z,44.44
2019-01-25T08:06:42.040Z,44.73
2019-01-25T08:07:45.536Z,45.00
2019-01-25T08:08:49.052Z,45.36
2019-01-25T08:09:52.584Z,45.64
2019-01-25T08:10:56.141Z,45.93
2019-01-25T08:12:07.012Z,46.10
2019-01-25T08:13:05.192Z,46.31
2019-01-25T08:14:08.889Z,46.51
2019-01-25T08:15:18.153Z,46.83
2019-01-25T08:16:23.240Z,46.92
2019-01-25T08:17:26.757Z,47.17
2019-01-25T08:18:30.345Z,47.23
2019-01-25T08:19:34.014Z,47.28
2019-01-25T08:20:37.593Z,47.30
2019-01-25T08:21:41.296Z,47.34
2019-01-25T08:22:45.008Z,47.30
2019-01-25T08:23:48.503Z,47.32
2019-01-25T08:24:52.036Z,47.34
2019-01-25T08:25:55.638Z,47.42
2019-01-25T08:26:59.311Z,47.50
2019-01-25T08:28:02.948Z,47.51
2019-01-25T08:29:06.503Z,47.65
2019-01-25T08:30:16.269Z,47.74
2019-01-25T08:31:19.800Z,47.94
2019-01-25T08:32:24.101Z,47.99
2019-01-25T08:33:27.737Z,48.10
2019-01-25T08:34:31.297Z,48.28
2019-01-25T08:35:34.896Z,48.34
2019-01-25T08:36:38.605Z,48.43
2019-01-25T08:37:42.201Z,48.55
2019-01-25T08:38:45.675Z,48.65
2019-01-25T08:39:49.200Z,48.72
2019-01-25T08:40:54.501Z,48.69
2019-01-25T08:41:58.067Z,48.69
2019-01-25T08:43:01.656Z,48.77
2019-01-25T08:44:05.428Z,48.75
2019-01-25T08:45:16.909Z,48.80
2019-01-25T08:46:20.397Z,48.82
2019-01-25T08:47:23.919Z,48.93
2019-01-25T08:48:29.156Z,48.92
2019-01-25T08:49:32.883Z,49.00
2019-01-25T08:50:36.509Z,49.09
2019-01-25T08:51:40.211Z,49.17
2019-01-25T08:52:43.874Z,49.24
2019-01-25T08:53:47.533Z,49.30
2019-01-25T08:54:51.112Z,49.41
2019-01-25T08:55:54.605Z,49.47
2019-01-25T08:56:58.175Z,49.56
2019-01-25T08:58:01.783Z,49.62
2019-01-25T08:59:05.532Z,49.67
2019-01-25T09:00:12.471Z,49.71
2019-01-25T09:01:16.094Z,49.73
2019-01-25T09:02:19.625Z,49.70
2019-01-25T09:03:23.149Z,49.76
2019-01-25T09:04:26.703Z,49.72
2019-01-25T09:05:30.307Z,49.74
2019-01-25T09:06:33.802Z,49.76
2019-01-25T09:07:37.404Z,49.80
2019-01-25T09:08:41.040Z,49.84
2019-01-25T09:09:44.548Z,49.90
2019-01-25T09:10:48.180Z,49.90
2019-01-25T09:11:51.738Z,49.93
2019-01-25T09:12:55.271Z,49.99
2019-01-25T09:13:58.862Z,50.05
2019-01-25T09:15:02.503Z,50.09
2019-01-25T09:16:06.077Z,50.16
2019-01-25T09:17:09.710Z,50.23
2019-01-25T09:18:13.392Z,50.27
2019-01-25T09:19:16.996Z,50.30
2019-01-25T09:20:21.941Z,50.34
2019-01-25T09:21:25.653Z,50.36
2019-01-25T09:22:29.217Z,50.32
2019-01-25T09:23:32.896Z,50.29
2019-01-25T09:24:36.434Z,50.31
2019-01-25T09:25:40.020Z,50.31
2019-01-25T09:26:43.686Z,50.29
2019-01-25T09:27:47.885Z,50.31
2019-01-25T09:28:51.379Z,50.33
2019-01-25T09:29:55.077Z,50.36
2019-01-25T09:30:58.655Z,50.38
2019-01-25T09:32:02.294Z,50.42
2019-01-25T09:33:06.111Z,50.44
2019-01-25T09:34:09.611Z,50.49
2019-01-25T09:35:13.569Z,50.50
2019-01-25T09:36:17.145Z,50.58
2019-01-25T09:37:20.637Z,50.62
2019-01-25T09:38:24.178Z,50.65
2019-01-25T09:39:27.764Z,50.70
2019-01-25T09:40:31.271Z,50.73
2019-01-25T09:41:34.896Z,50.73
2019-01-25T09:42:38.447Z,50.72
2019-01-25T09:43:41.959Z,50.67
2019-01-25T09:44:45.503Z,50.61
2019-01-25T09:45:49.133Z,50.55
2019-01-25T09:46:53.556Z,50.53
2019-01-25T09:47:57.178Z,50.55
2019-01-25T09:49:00.700Z,50.55
2019-01-25T09:50:06.989Z,50.55
2019-01-25T09:51:10.568Z,50.58
2019-01-25T09:52:14.133Z,50.62
2019-01-25T09:53:17.745Z,50.63
2019-01-25T09:54:21.314Z,50.67
2019-01-25T09:55:25.992Z,50.72
2019-01-25T09:56:29.580Z,50.77
2019-01-25T09:57:33.131Z,50.79
2019-01-25T09:58:38.095Z,50.81
2019-01-25T09:59:42.390Z,50.88
2019-01-25T10:00:58.069Z,50.89
2019-01-25T10:02:01.609Z,50.88
2019-01-25T10:03:05.274Z,50.86
2019-01-25T10:04:08.806Z,50.81
2019-01-25T10:05:12.417Z,50.76
2019-01-25T10:06:16.093Z,50.75
2019-01-25T10:07:19.763Z,50.71
2019-01-25T10:08:23.348Z,50.74
2019-01-25T10:09:26.960Z,50.76
2019-01-25T10:10:30.689Z,50.70
2019-01-25T10:11:34.172Z,50.74
2019-01-25T10:12:43.316Z,50.79
2019-01-25T10:13:42.991Z,50.80
2019-01-25T10:14:46.549Z,50.85
2019-01-25T10:15:50.237Z,50.87
2019-01-25T10:16:53.729Z,50.91
2019-01-25T10:17:57.314Z,50.94
2019-01-25T10:19:00.909Z,50.99
2019-01-25T10:20:07.589Z,51.01
2019-01-25T10:21:11.205Z,51.03
2019-01-25T10:22:14.751Z,51.01
2019-01-25T10:23:18.237Z,50.99
2019-01-25T10:24:21.816Z,50.89
2019-01-25T10:25:25.454Z,50.84
2019-01-25T10:26:29.033Z,50.80
2019-01-25T10:27:32.565Z,50.77
2019-01-25T10:28:36.160Z,50.75
2019-01-25T10:29:39.687Z,50.70
2019-01-25T10:30:43.277Z,50.76
2019-01-25T10:31:46.970Z,50.80
2019-01-25T10:32:50.548Z,50.82
2019-01-25T10:33:54.113Z,50.83
2019-01-25T10:34:57.679Z,50.88
2019-01-25T10:36:01.352Z,50.92
2019-01-25T10:37:05.015Z,50.96
2019-01-25T10:38:08.607Z,50.97
2019-01-25T10:39:12.313Z,51.01
2019-01-25T10:40:18.255Z,51.04
2019-01-25T10:41:23.270Z,51.05
2019-01-25T10:42:26.912Z,50.98
2019-01-25T10:43:30.572Z,50.87
2019-01-25T10:44:34.143Z,50.84
2019-01-25T10:45:40.275Z,50.76
2019-01-25T10:46:43.810Z,50.71
2019-01-25T10:47:47.356Z,50.67
2019-01-25T10:48:50.836Z,50.65
2019-01-25T10:49:54.353Z,50.61
2019-01-25T10:50:57.982Z,50.59
2019-01-25T10:52:01.577Z,50.56
2019-01-25T10:53:06.695Z,50.58
2019-01-25T10:54:10.298Z,50.60
2019-01-25T10:55:14.738Z,50.66
2019-01-25T10:56:18.331Z,50.70
2019-01-25T10:57:21.940Z,50.74
2019-01-25T10:58:25.555Z,50.79
2019-01-25T10:59:29.088Z,50.83
2019-01-25T11:00:32.634Z,50.87
2019-01-25T11:01:36.221Z,50.91
2019-01-25T11:02:39.777Z,50.88
2019-01-25T11:03:43.397Z,50.87
2019-01-25T11:04:46.981Z,50.83
2019-01-25T11:05:50.546Z,50.81
2019-01-25T11:06:54.139Z,50.77
2019-01-25T11:07:57.791Z,50.81
2019-01-25T11:09:01.305Z,50.82
2019-01-25T11:10:06.561Z,50.78
2019-01-25T11:11:10.042Z,50.82
2019-01-25T11:12:13.586Z,50.87
2019-01-25T11:13:17.099Z,50.89
2019-01-25T11:14:20.614Z,50.96
2019-01-25T11:15:25.522Z,51.01
2019-01-25T11:16:29.086Z,51.03
2019-01-25T11:17:36.481Z,51.06
2019-01-25T11:18:37.998Z,51.10
2019-01-25T11:19:41.573Z,51.12
2019-01-25T11:20:45.154Z,51.08
2019-01-25T11:21:48.735Z,51.02
2019-01-25T11:22:52.764Z,50.94
2019-01-25T11:23:56.392Z,50.88
2019-01-25T11:24:59.981Z,50.83
2019-01-25T11:26:03.596Z,50.83
2019-01-25T11:27:07.124Z,50.85
2019-01-25T11:28:10.583Z,50.84
2019-01-25T11:29:14.156Z,50.86
2019-01-25T11:30:18.170Z,50.88
2019-01-25T11:31:21.653Z,50.91
2019-01-25T11:32:25.317Z,50.91
2019-01-25T11:33:28.939Z,50.92
2019-01-25T11:34:33.176Z,50.99
2019-01-25T11:35:36.731Z,51.03
2019-01-25T11:36:40.348Z,51.05
2019-01-25T11:37:43.937Z,51.08
2019-01-25T11:38:47.541Z,51.09
2019-01-25T11:39:51.052Z,51.05
2019-01-25T11:40:54.566Z,50.80
2019-01-25T11:41:58.210Z,50.61
2019-01-25T11:43:08.548Z,50.37
2019-01-25T11:44:07.043Z,50.32
2019-01-25T11:45:13.382Z,49.96
2019-01-25T11:46:17.023Z,49.42
2019-01-25T11:47:20.600Z,47.73
2019-01-25T11:48:24.113Z,47.86
2019-01-25T11:49:27.643Z,48.11
2019-01-25T11:50:31.313Z,47.79
2019-01-25T11:51:34.914Z,47.73
2019-01-25T11:52:38.422Z,47.13
2019-01-25T11:53:41.995Z,46.39
2019-01-25T11:54:45.499Z,46.02
2019-01-25T11:55:49.023Z,45.67
2019-01-25T11:56:52.544Z,45.12
2019-01-25T11:57:56.062Z,44.79
2019-01-25T11:58:59.643Z,44.42
2019-01-25T12:00:03.769Z,43.74
2019-01-25T12:01:07.552Z,43.77
2019-01-25T12:02:11.231Z,43.21
2019-01-25T12:03:14.807Z,42.41
2019-01-25T12:04:18.375Z,42.34
2019-01-25T12:05:23.523Z,42.08
2019-01-25T12:06:27.259Z,42.00
2019-01-25T12:07:30.770Z,42.07
2019-01-25T12:08:34.405Z,41.81
2019-01-25T12:09:37.979Z,41.68
2019-01-25T12:10:42.614Z,41.70
2019-01-25T12:11:46.239Z,41.51
2019-01-25T12:12:49.804Z,41.48
2019-01-25T12:13:53.382Z,41.48
2019-01-25T12:14:56.890Z,41.45
2019-01-25T12:16:00.389Z,41.51
2019-01-25T12:17:03.982Z,41.45
2019-01-25T12:18:07.655Z,41.45
2019-01-25T12:19:11.217Z,41.58
2019-01-25T12:20:23.443Z,41.58
2019-01-25T12:21:27.015Z,41.57
2019-01-25T12:22:30.578Z,41.65
2019-01-25T12:23:34.219Z,41.69
2019-01-25T12:24:37.797Z,41.79
2019-01-25T12:25:41.298Z,41.74
2019-01-25T12:26:45.070Z,41.77
2019-01-25T12:27:48.623Z,41.80
2019-01-25T12:28:52.131Z,41.75
2019-01-25T12:29:55.636Z,41.84
2019-01-25T12:30:59.325Z,41.86
2019-01-25T12:32:03.062Z,42.25
2019-01-25T12:33:07.893Z,42.23
2019-01-25T12:34:11.417Z,42.36
2019-01-25T12:35:15.091Z,42.53
2019-01-25T12:36:18.584Z,42.83
2019-01-25T12:37:23.328Z,42.86
2019-01-25T12:38:26.954Z,42.96
2019-01-25T12:39:30.555Z,43.11
2019-01-25T12:40:34.794Z,43.18
2019-01-25T12:41:38.338Z,43.38
2019-01-25T12:42:41.845Z,43.51
2019-01-25T12:43:45.528Z,43.53
2019-01-25T12:44:49.053Z,43.59
2019-01-25T12:45:52.860Z,43.70
2019-01-25T12:46:56.424Z,43.64
2019-01-25T12:48:00.274Z,43.72
2019-01-25T12:49:03.878Z,43.81
2019-01-25T12:50:13.763Z,43.77
2019-01-25T12:51:19.114Z,43.77
2019-01-25T12:52:22.983Z,43.71
2019-01-25T12:53:26.630Z,43.64
2019-01-25T12:54:30.562Z,43.76
2019-01-25T12:55:34.364Z,43.79
2019-01-25T12:56:38.265Z,43.88
2019-01-25T12:57:42.285Z,43.87
2019-01-25T12:58:46.068Z,43.99
2019-01-25T12:59:49.686Z,44.08
2019-01-25T13:00:53.901Z,44.06
2019-01-25T13:01:59.528Z,44.10
2019-01-25T13:03:03.260Z,44.06
2019-01-25T13:04:06.898Z,44.17
2019-01-25T13:05:13.872Z,44.20
2019-01-25T13:06:17.474Z,44.17
2019-01-25T13:07:21.878Z,44.12
2019-01-25T13:08:25.652Z,44.12
2019-01-25T13:09:29.311Z,44.21
2019-01-25T13:10:33.034Z,44.22
2019-01-25T13:11:36.605Z,44.15
2019-01-25T13:12:40.326Z,44.16
2019-01-25T13:13:43.972Z,44.18
2019-01-25T13:14:47.653Z,44.21
2019-01-25T13:15:51.312Z,44.21
2019-01-25T13:16:54.966Z,44.28
2019-01-25T13:17:58.586Z,44.32
2019-01-25T13:19:02.387Z,44.30
2019-01-25T13:20:09.025Z,44.35
2019-01-25T13:21:12.607Z,44.47
2019-01-25T13:22:44.551Z,44.45
2019-01-25T13:23:48.225Z,44.44
2019-01-25T13:24:51.731Z,44.56
2019-01-25T13:25:55.305Z,44.60
2019-01-25T13:26:58.853Z,44.45
2019-01-25T13:28:02.438Z,44.45
2019-01-25T13:29:06.162Z,44.50
2019-01-25T13:30:19.429Z,44.45
2019-01-25T13:31:23.116Z,44.54
2019-01-25T13:32:26.987Z,44.53
2019-01-25T13:33:30.560Z,44.53
2019-01-25T13:34:34.078Z,44.49
2019-01-25T13:35:37.708Z,44.46
2019-01-25T13:36:41.262Z,44.45
2019-01-25T13:37:44.921Z,44.44
2019-01-25T13:38:48.582Z,44.42
2019-01-25T13:40:00.244Z,44.38
2019-01-25T13:41:04.227Z,44.35
2019-01-25T13:42:08.123Z,44.34
2019-01-25T13:43:11.703Z,44.33
2019-01-25T13:44:15.629Z,44.35
2019-01-25T13:45:22.466Z,44.33